createdAt,value
2017-07-24T00:00:18.162Z,22.90
2017-07-24T00:02:45.713Z,23.00
2017-07-24T00:05:13.266Z,23.00
2017-07-24T00:07:40.847Z,22.80
2017-07-24T00:10:08.390Z,22.90
2017-07-24T00:12:35.962Z,22.90
2017-07-24T00:15:03.511Z,22.80
2017-07-24T00:17:31.078Z,22.70
2017-07-24T00:19:58.659Z,22.70
2017-07-24T00:22:26.975Z,22.30
2017-07-24T00:24:54.529Z,22.30
2017-07-24T00:27:22.079Z,22.30
2017-07-24T00:29:49.637Z,22.10
2017-07-24T00:32:17.250Z,22.30
2017-07-24T00:34:44.810Z,22.10
2017-07-24T00:37:12.475Z,22.10
2017-07-24T00:39:40.134Z,21.90
2017-07-24T00:42:07.686Z,21.80
2017-07-24T00:44:35.267Z,21.80
2017-07-24T00:47:02.810Z,21.60
2017-07-24T00:49:30.473Z,21.70
2017-07-24T00:51:58.126Z,21.90
2017-07-24T00:54:25.677Z,21.90
2017-07-24T00:56:53.350Z,22.10
2017-07-24T00:59:20.898Z,22.20
2017-07-24T01:01:48.472Z,22.10
2017-07-24T01:04:16.130Z,22.20
2017-07-24T01:06:43.786Z,22.30
2017-07-24T01:09:11.454Z,22.20
2017-07-24T01:11:39.002Z,22.30
2017-07-24T01:14:06.570Z,22.00
2017-07-24T01:16:34.231Z,21.80
2017-07-24T01:19:01.785Z,21.80
2017-07-24T01:21:29.451Z,21.70
2017-07-24T01:23:57.109Z,21.70
2017-07-24T01:26:24.774Z,21.60
2017-07-24T01:28:52.431Z,21.80
2017-07-24T01:31:19.983Z,21.80
2017-07-24T01:33:47.568Z,22.00
2017-07-24T01:36:15.126Z,22.00
2017-07-24T01:38:42.774Z,22.10
2017-07-24T01:41:10.317Z,22.10
2017-07-24T01:43:37.898Z,22.30
2017-07-24T01:46:05.491Z,22.20
2017-07-24T01:48:33.830Z,22.00
2017-07-24T01:51:01.490Z,22.00
2017-07-24T01:53:29.150Z,21.80
2017-07-24T01:55:56.818Z,21.80
2017-07-24T01:58:24.481Z,21.90
2017-07-24T02:00:52.134Z,21.90
2017-07-24T02:03:19.805Z,22.00
2017-07-24T02:05:47.383Z,21.80
2017-07-24T02:08:15.709Z,22.10
2017-07-24T02:10:43.394Z,22.00
2017-07-24T02:13:11.059Z,22.10
2017-07-24T02:15:38.618Z,22.00
2017-07-24T02:18:06.162Z,22.00
2017-07-24T02:20:33.718Z,21.90
2017-07-24T02:23:01.324Z,22.00
2017-07-24T02:25:29.669Z,22.10
2017-07-24T02:27:57.331Z,22.10
2017-07-24T02:30:24.891Z,22.10
2017-07-24T02:32:52.560Z,22.20
2017-07-24T02:35:20.162Z,22.20
2017-07-24T02:37:47.774Z,22.00
2017-07-24T02:40:15.328Z,21.80
2017-07-24T02:42:42.990Z,21.50
2017-07-24T02:45:10.545Z,21.60
2017-07-24T02:47:38.210Z,21.60
2017-07-24T02:50:05.767Z,21.80
2017-07-24T02:52:33.434Z,21.80
2017-07-24T02:55:00.985Z,21.80
2017-07-24T02:57:28.550Z,21.90
2017-07-24T02:59:56.218Z,21.80
2017-07-24T03:02:23.782Z,22.00
2017-07-24T03:04:51.434Z,22.00
2017-07-24T03:07:19.026Z,21.90
2017-07-24T03:09:47.369Z,21.90
2017-07-24T03:12:14.950Z,21.90
2017-07-24T03:14:43.338Z,21.90
2017-07-24T03:17:11.658Z,22.00
2017-07-24T03:19:39.214Z,22.00
2017-07-24T03:22:06.794Z,22.00
2017-07-24T03:24:34.463Z,22.10
2017-07-24T03:27:02.127Z,22.10
2017-07-24T03:29:29.682Z,22.20
2017-07-24T03:31:57.353Z,22.10
2017-07-24T03:34:24.905Z,22.10
2017-07-24T03:36:52.526Z,22.10
2017-07-24T03:39:20.126Z,22.20
2017-07-24T03:41:47.781Z,22.20
2017-07-24T03:44:15.446Z,22.00
2017-07-24T03:46:43.106Z,21.90
2017-07-24T03:49:10.771Z,22.00
2017-07-24T03:51:38.430Z,22.10
2017-07-24T03:54:06.091Z,22.10
2017-07-24T03:56:33.757Z,22.30
2017-07-24T03:59:01.310Z,22.30
2017-07-24T04:01:28.897Z,22.40
2017-07-24T04:03:57.223Z,22.50
2017-07-24T04:06:24.814Z,22.50
2017-07-24T04:08:52.378Z,22.50
2017-07-24T04:11:20.738Z,22.50
2017-07-24T04:13:48.362Z,22.50
2017-07-24T04:16:15.998Z,22.50
2017-07-24T04:18:43.614Z,22.60
2017-07-24T04:21:11.285Z,22.60
2017-07-24T04:23:38.839Z,22.60
2017-07-24T04:26:06.418Z,22.60
2017-07-24T04:28:33.970Z,22.60
2017-07-24T04:31:01.627Z,22.70
2017-07-24T04:33:29.287Z,22.60
2017-07-24T04:35:56.845Z,22.30
2017-07-24T04:38:24.506Z,22.30
2017-07-24T04:40:52.167Z,22.40
2017-07-24T04:43:19.830Z,22.30
2017-07-24T04:45:47.386Z,22.30
2017-07-24T04:48:15.054Z,22.40
2017-07-24T04:50:42.657Z,22.40
2017-07-24T04:53:10.271Z,22.50
2017-07-24T04:55:37.833Z,22.40
2017-07-24T04:58:05.385Z,22.50
2017-07-24T05:00:33.052Z,22.60
2017-07-24T05:03:00.717Z,22.50
2017-07-24T05:05:28.371Z,22.70
2017-07-24T05:07:55.922Z,22.70
2017-07-24T05:10:23.490Z,22.80
2017-07-24T05:12:51.170Z,22.80
2017-07-24T05:15:18.810Z,22.90
2017-07-24T05:17:46.367Z,23.00
2017-07-24T05:20:13.921Z,23.10
2017-07-24T05:22:41.492Z,23.10
2017-07-24T05:25:09.146Z,23.10
2017-07-24T05:27:36.811Z,23.20
2017-07-24T05:30:04.470Z,23.30
2017-07-24T05:32:32.136Z,23.30
2017-07-24T05:34:59.795Z,23.40
2017-07-24T05:37:27.461Z,23.50
2017-07-24T05:39:55.042Z,23.50
2017-07-24T05:42:23.398Z,23.70
2017-07-24T05:44:51.031Z,23.70
2017-07-24T05:47:18.592Z,23.70
2017-07-24T05:49:46.145Z,23.70
2017-07-24T05:52:13.830Z,23.80
2017-07-24T05:54:41.382Z,23.90
2017-07-24T05:57:08.954Z,24.00
2017-07-24T05:59:36.618Z,24.00
2017-07-24T06:02:04.177Z,23.90
2017-07-24T06:04:31.835Z,24.00
2017-07-24T06:06:59.394Z,24.00
2017-07-24T06:09:26.948Z,24.00
2017-07-24T06:11:54.606Z,23.90
2017-07-24T06:14:22.174Z,24.00
2017-07-24T06:16:49.830Z,24.00
2017-07-24T06:19:17.494Z,24.00
2017-07-24T06:21:45.154Z,24.00
2017-07-24T06:24:12.703Z,24.10
2017-07-24T06:26:40.280Z,24.10
2017-07-24T06:29:08.036Z,24.20
2017-07-24T06:31:35.701Z,24.30
2017-07-24T06:34:03.360Z,24.40
2017-07-24T06:36:31.018Z,24.40
2017-07-24T06:38:58.574Z,24.40
2017-07-24T06:41:26.246Z,24.40
2017-07-24T06:43:53.800Z,24.50
2017-07-24T06:46:21.458Z,24.60
2017-07-24T06:48:49.123Z,24.60
2017-07-24T06:51:16.793Z,24.50
2017-07-24T06:53:44.382Z,24.40
2017-07-24T06:56:12.698Z,24.60
2017-07-24T06:58:40.250Z,24.60
2017-07-24T07:01:07.837Z,24.70
2017-07-24T07:03:35.394Z,24.70
2017-07-24T07:06:03.059Z,24.80
2017-07-24T07:08:30.725Z,25.00
2017-07-24T07:10:58.382Z,25.00
2017-07-24T07:13:26.048Z,24.90
2017-07-24T07:15:53.614Z,25.00
2017-07-24T07:18:21.194Z,25.10
2017-07-24T07:20:48.825Z,25.30
2017-07-24T07:23:16.482Z,25.10
2017-07-24T07:25:44.141Z,25.30
2017-07-24T07:28:12.744Z,25.40
2017-07-24T07:30:42.408Z,25.40
2017-07-24T07:33:12.617Z,25.50
2017-07-24T07:35:41.506Z,25.50
2017-07-24T07:38:09.627Z,25.70
2017-07-24T07:40:38.478Z,25.80
2017-07-24T07:43:07.179Z,25.80
2017-07-24T07:45:35.956Z,25.70
2017-07-24T07:48:04.637Z,25.70
2017-07-24T07:50:34.030Z,26.20
2017-07-24T07:53:15.446Z,26.10
2017-07-24T07:55:44.177Z,26.30
2017-07-24T07:58:12.067Z,26.40
2017-07-24T08:00:44.024Z,26.40
2017-07-24T08:03:12.893Z,26.50
2017-07-24T08:05:42.337Z,26.90
2017-07-24T08:08:10.993Z,26.80
2017-07-24T08:10:38.545Z,27.00
2017-07-24T08:13:06.106Z,27.20
2017-07-24T08:15:33.666Z,27.40
2017-07-24T08:18:01.320Z,27.50
2017-07-24T08:20:29.665Z,27.70
2017-07-24T08:22:57.327Z,27.70
2017-07-24T08:25:24.986Z,28.00
2017-07-24T08:27:52.852Z,27.90
2017-07-24T08:30:20.518Z,28.00
2017-07-24T08:32:48.320Z,27.90
2017-07-24T08:35:15.878Z,27.70
2017-07-24T08:37:43.558Z,27.70
2017-07-24T08:40:11.540Z,27.40
2017-07-24T08:42:39.401Z,27.60
2017-07-24T08:45:07.246Z,27.80
2017-07-24T08:47:35.009Z,27.90
2017-07-24T08:50:02.698Z,28.10
2017-07-24T08:52:30.386Z,28.30
2017-07-24T08:55:01.000Z,27.90
2017-07-24T08:57:28.781Z,27.40
2017-07-24T08:59:56.649Z,27.70
2017-07-24T09:02:24.307Z,27.90
2017-07-24T09:04:52.133Z,28.20
2017-07-24T09:07:19.730Z,28.50
2017-07-24T09:09:47.376Z,28.70
2017-07-24T09:12:15.064Z,29.00
2017-07-24T09:14:42.626Z,29.10
2017-07-24T09:17:10.406Z,29.20
2017-07-24T09:19:38.864Z,29.30
2017-07-24T09:22:06.522Z,29.30
2017-07-24T09:24:34.162Z,29.40
2017-07-24T09:27:01.738Z,29.50
2017-07-24T09:29:29.302Z,29.60
2017-07-24T09:31:56.869Z,29.60
2017-07-24T09:34:24.413Z,29.60
2017-07-24T09:36:51.960Z,29.80
2017-07-24T09:39:19.534Z,29.60
2017-07-24T09:41:47.087Z,29.70
2017-07-24T09:44:14.662Z,29.50
2017-07-24T09:46:42.277Z,29.60
2017-07-24T09:49:10.093Z,29.70
2017-07-24T09:51:37.664Z,29.90
2017-07-24T09:54:06.017Z,30.10
2017-07-24T09:56:33.584Z,30.00
2017-07-24T09:59:01.144Z,29.70
2017-07-24T10:01:28.694Z,29.80
2017-07-24T10:03:56.314Z,29.80
2017-07-24T10:06:23.862Z,30.00
2017-07-24T10:08:51.448Z,30.20
2017-07-24T10:11:20.384Z,30.20
2017-07-24T10:13:48.034Z,30.30
2017-07-24T10:16:15.581Z,30.40
2017-07-24T10:18:43.189Z,30.30
2017-07-24T10:21:10.808Z,30.40
2017-07-24T10:23:38.470Z,30.30
2017-07-24T10:26:06.134Z,30.10
2017-07-24T10:28:33.811Z,30.00
2017-07-24T10:31:02.130Z,29.60
2017-07-24T10:33:29.702Z,29.60
2017-07-24T10:35:57.286Z,29.40
2017-07-24T10:38:24.826Z,29.10
2017-07-24T10:40:52.382Z,29.30
2017-07-24T10:43:19.962Z,29.20
2017-07-24T10:45:47.535Z,29.50
2017-07-24T10:48:15.182Z,29.70
2017-07-24T10:50:42.730Z,29.70
2017-07-24T10:53:10.309Z,29.70
2017-07-24T10:55:37.962Z,29.50
2017-07-24T10:58:05.624Z,29.50
2017-07-24T11:00:33.270Z,29.30
2017-07-24T11:03:00.956Z,29.10
2017-07-24T11:05:28.619Z,28.60
2017-07-24T11:07:56.638Z,28.40
2017-07-24T11:10:24.241Z,28.40
2017-07-24T11:12:56.242Z,28.80
2017-07-24T11:15:24.034Z,29.20
2017-07-24T11:17:51.621Z,29.40
2017-07-24T11:20:19.214Z,29.20
2017-07-24T11:22:47.638Z,29.10
2017-07-24T11:25:15.301Z,29.20
2017-07-24T11:27:42.990Z,29.20
2017-07-24T11:30:10.539Z,29.10
2017-07-24T11:32:38.113Z,29.00
2017-07-24T11:35:05.878Z,29.10
2017-07-24T11:37:33.438Z,29.10
2017-07-24T11:40:01.254Z,28.80
2017-07-24T11:42:28.971Z,28.70
2017-07-24T11:44:56.694Z,28.60
2017-07-24T11:47:24.282Z,28.60
2017-07-24T11:49:51.942Z,28.70
2017-07-24T11:52:19.665Z,28.80
2017-07-24T11:54:47.267Z,28.60
2017-07-24T11:57:14.930Z,28.40
2017-07-24T11:59:42.593Z,28.40
2017-07-24T12:02:10.142Z,28.50
2017-07-24T12:04:37.696Z,28.40
2017-07-24T12:07:05.238Z,28.40
2017-07-24T12:09:32.822Z,28.20
2017-07-24T12:12:00.381Z,28.00
2017-07-24T12:14:28.045Z,27.60
2017-07-24T12:16:55.739Z,27.50
2017-07-24T12:19:24.063Z,27.60
2017-07-24T12:21:51.738Z,27.60
2017-07-24T12:24:19.306Z,27.70
2017-07-24T12:26:46.969Z,27.80
2017-07-24T12:29:14.518Z,27.80
2017-07-24T12:31:42.086Z,27.70
2017-07-24T12:34:09.746Z,27.60
2017-07-24T12:36:37.290Z,27.60
2017-07-24T12:39:04.851Z,27.70
2017-07-24T12:41:32.429Z,27.60
2017-07-24T12:44:00.081Z,27.90
2017-07-24T12:46:27.654Z,28.10
2017-07-24T12:48:55.301Z,28.30
2017-07-24T12:51:22.966Z,28.50
2017-07-24T12:53:50.578Z,28.70
2017-07-24T12:56:18.191Z,28.70
2017-07-24T12:58:45.765Z,28.20
2017-07-24T13:01:13.407Z,28.00
2017-07-24T13:03:40.970Z,27.80
2017-07-24T13:06:08.634Z,27.10
2017-07-24T13:08:36.187Z,26.60
2017-07-24T13:11:03.850Z,26.80
2017-07-24T13:13:31.506Z,26.30
2017-07-24T13:15:59.178Z,26.00
2017-07-24T13:18:26.726Z,26.10
2017-07-24T13:20:54.294Z,26.20
2017-07-24T13:23:21.954Z,26.40
2017-07-24T13:25:49.616Z,26.10
2017-07-24T13:28:17.265Z,26.00
2017-07-24T13:30:44.830Z,25.70
2017-07-24T13:33:12.379Z,25.80
2017-07-24T13:35:40.046Z,25.80
2017-07-24T13:38:07.602Z,26.20
2017-07-24T13:40:35.171Z,26.40
2017-07-24T13:43:02.719Z,26.30
2017-07-24T13:45:30.264Z,26.00
2017-07-24T13:47:57.949Z,26.20
2017-07-24T13:50:25.607Z,26.20
2017-07-24T13:52:53.169Z,26.20
2017-07-24T13:55:20.718Z,26.30
2017-07-24T13:57:48.286Z,26.50
2017-07-24T14:00:15.862Z,26.70
2017-07-24T14:02:44.294Z,26.90
2017-07-24T14:05:11.888Z,26.90
2017-07-24T14:07:39.542Z,27.00
2017-07-24T14:10:07.088Z,26.70
2017-07-24T14:12:34.844Z,26.70
2017-07-24T14:15:02.386Z,26.40
2017-07-24T14:17:29.992Z,26.10
2017-07-24T14:19:57.545Z,26.10
2017-07-24T14:22:25.090Z,26.20
2017-07-24T14:24:52.746Z,26.40
2017-07-24T14:27:20.296Z,26.50
2017-07-24T14:29:47.894Z,26.30
2017-07-24T14:32:15.448Z,26.40
2017-07-24T14:34:42.993Z,26.40
2017-07-24T14:37:10.583Z,26.10
2017-07-24T14:39:38.903Z,25.70
2017-07-24T14:42:06.458Z,25.70
2017-07-24T14:44:34.006Z,25.40
2017-07-24T14:47:01.618Z,25.50
2017-07-24T14:49:29.194Z,25.60
2017-07-24T14:51:57.552Z,25.50
2017-07-24T14:54:25.214Z,25.50
2017-07-24T14:56:52.875Z,25.70
2017-07-24T14:59:20.426Z,25.60
2017-07-24T15:01:48.097Z,25.70
2017-07-24T15:04:15.754Z,25.50
2017-07-24T15:06:43.302Z,25.80
2017-07-24T15:09:10.882Z,26.00
2017-07-24T15:11:38.427Z,26.10
2017-07-24T15:14:06.098Z,26.10
2017-07-24T15:16:33.754Z,25.80
2017-07-24T15:19:01.314Z,25.60
2017-07-24T15:21:28.861Z,25.80
2017-07-24T15:23:56.882Z,25.60
2017-07-24T15:26:24.506Z,25.60
2017-07-24T15:28:52.133Z,25.50
2017-07-24T15:31:19.732Z,25.60
2017-07-24T15:33:47.601Z,25.70
2017-07-24T15:36:15.361Z,25.70
2017-07-24T15:38:43.014Z,25.80
2017-07-24T15:41:10.738Z,25.80
2017-07-24T15:43:38.361Z,26.00
2017-07-24T15:46:06.703Z,26.00
2017-07-24T15:48:34.274Z,26.10
2017-07-24T15:51:01.938Z,26.10
2017-07-24T15:53:29.486Z,26.10
2017-07-24T15:55:57.037Z,26.20
2017-07-24T15:58:24.659Z,26.20
2017-07-24T16:00:52.273Z,26.20
2017-07-24T16:03:19.940Z,26.20
2017-07-24T16:05:47.595Z,26.20
2017-07-24T16:08:15.167Z,26.20
2017-07-24T16:10:42.822Z,26.20
2017-07-24T16:13:10.480Z,26.20
2017-07-24T16:15:38.147Z,26.10
2017-07-24T16:18:05.803Z,26.10
2017-07-24T16:20:33.464Z,26.10
2017-07-24T16:23:01.126Z,26.10
2017-07-24T16:25:28.790Z,26.10
2017-07-24T16:27:56.446Z,26.10
2017-07-24T16:30:24.006Z,26.00
2017-07-24T16:32:51.554Z,26.00
2017-07-24T16:35:19.106Z,25.90
2017-07-24T16:37:46.666Z,25.90
2017-07-24T16:40:14.347Z,25.70
2017-07-24T16:42:42.009Z,25.70
2017-07-24T16:45:09.674Z,25.60
2017-07-24T16:47:37.334Z,25.50
2017-07-24T16:50:04.990Z,25.40
2017-07-24T16:52:32.575Z,25.40
2017-07-24T16:55:00.926Z,25.40
2017-07-24T16:57:28.491Z,25.40
2017-07-24T16:59:56.153Z,25.40
2017-07-24T17:02:23.706Z,25.20
2017-07-24T17:04:51.365Z,25.10
2017-07-24T17:07:18.913Z,25.10
2017-07-24T17:09:46.464Z,25.00
2017-07-24T17:12:14.021Z,25.10
2017-07-24T17:14:41.581Z,25.00
2017-07-24T17:17:09.266Z,25.00
2017-07-24T17:19:36.930Z,24.90
2017-07-24T17:22:04.596Z,24.80
2017-07-24T17:24:32.176Z,24.80
2017-07-24T17:27:01.268Z,24.70
2017-07-24T17:29:29.797Z,24.60
2017-07-24T17:31:57.394Z,24.60
2017-07-24T17:34:25.769Z,24.50
2017-07-24T17:36:53.326Z,24.50
2017-07-24T17:39:20.982Z,24.50
2017-07-24T17:41:48.649Z,24.50
2017-07-24T17:44:16.315Z,24.50
2017-07-24T17:46:43.917Z,24.40
2017-07-24T17:49:11.558Z,24.40
2017-07-24T17:51:39.930Z,24.30
2017-07-24T17:54:08.381Z,24.30
2017-07-24T17:56:36.198Z,24.30
2017-07-24T17:59:04.254Z,24.10
2017-07-24T18:01:32.981Z,24.00
2017-07-24T18:04:00.539Z,24.00
2017-07-24T18:06:28.370Z,24.10
2017-07-24T18:08:56.827Z,24.10
2017-07-24T18:11:24.378Z,24.10
2017-07-24T18:13:52.212Z,24.10
2017-07-24T18:16:19.875Z,24.10
2017-07-24T18:18:47.498Z,24.20
2017-07-24T18:21:15.118Z,24.10
2017-07-24T18:23:42.666Z,24.10
2017-07-24T18:26:10.353Z,24.10
2017-07-24T18:28:37.999Z,24.00
2017-07-24T18:31:05.658Z,24.00
2017-07-24T18:33:33.226Z,24.00
2017-07-24T18:36:00.766Z,23.90
2017-07-24T18:38:28.333Z,23.90
2017-07-24T18:41:00.993Z,23.90
2017-07-24T18:43:29.118Z,23.80
2017-07-24T18:45:57.437Z,23.70
2017-07-24T18:48:25.127Z,23.70
2017-07-24T18:50:52.795Z,23.70
2017-07-24T18:53:20.527Z,23.80
2017-07-24T18:55:48.154Z,23.80
2017-07-24T18:58:15.849Z,23.70
2017-07-24T19:00:44.506Z,23.70
2017-07-24T19:03:12.118Z,23.60
2017-07-24T19:05:39.668Z,23.60
2017-07-24T19:08:07.246Z,23.60
2017-07-24T19:10:34.894Z,23.70
2017-07-24T19:13:02.446Z,23.70
2017-07-24T19:15:30.018Z,23.70
2017-07-24T19:17:57.678Z,23.70
2017-07-24T19:20:25.255Z,23.60
2017-07-24T19:22:53.618Z,23.50
2017-07-24T19:25:21.274Z,23.50
2017-07-24T19:27:48.847Z,23.50
2017-07-24T19:30:16.500Z,23.40
2017-07-24T19:32:44.153Z,23.50
2017-07-24T19:35:11.814Z,23.50
2017-07-24T19:37:39.374Z,23.40
2017-07-24T19:40:06.934Z,23.50
2017-07-24T19:42:35.185Z,23.50
2017-07-24T19:45:02.873Z,23.50
2017-07-24T19:47:30.536Z,23.50
2017-07-24T19:49:58.272Z,23.50
2017-07-24T19:52:26.003Z,23.50
2017-07-24T19:54:53.554Z,23.50
2017-07-24T19:57:22.003Z,23.40
2017-07-24T19:59:49.666Z,23.40
2017-07-24T20:02:17.398Z,23.50
2017-07-24T20:04:45.075Z,23.40
2017-07-24T20:07:13.445Z,23.40
2017-07-24T20:09:41.175Z,23.40
2017-07-24T20:12:08.792Z,23.40
2017-07-24T20:14:36.452Z,23.40
2017-07-24T20:17:04.006Z,23.30
2017-07-24T20:19:31.711Z,23.20
2017-07-24T20:21:59.289Z,23.30
2017-07-24T20:24:26.963Z,23.30
2017-07-24T20:26:54.733Z,23.30
2017-07-24T20:29:23.574Z,23.30
2017-07-24T20:31:51.919Z,23.30
2017-07-24T20:34:19.842Z,23.30
2017-07-24T20:36:47.389Z,23.30
2017-07-24T20:39:15.010Z,23.30
2017-07-24T20:41:42.570Z,23.20
2017-07-24T20:44:10.121Z,23.30
2017-07-24T20:46:37.710Z,23.30
2017-07-24T20:49:06.066Z,23.10
2017-07-24T20:51:33.615Z,23.10
2017-07-24T20:54:01.168Z,23.00
2017-07-24T20:56:28.746Z,22.90
2017-07-24T20:58:56.318Z,22.80
2017-07-24T21:01:24.674Z,22.50
2017-07-24T21:03:52.234Z,22.50
2017-07-24T21:06:19.806Z,22.40
2017-07-24T21:08:47.358Z,22.30
2017-07-24T21:11:15.214Z,22.20
2017-07-24T21:13:42.774Z,22.30
2017-07-24T21:16:10.322Z,22.40
2017-07-24T21:18:37.894Z,22.40
2017-07-24T21:21:05.442Z,22.50
2017-07-24T21:23:33.426Z,22.40
2017-07-24T21:26:00.970Z,22.50
2017-07-24T21:28:28.538Z,22.50
2017-07-24T21:30:56.090Z,22.50
2017-07-24T21:33:23.661Z,22.50
2017-07-24T21:35:51.235Z,22.40
2017-07-24T21:38:18.788Z,22.50
2017-07-24T21:40:46.438Z,22.50
2017-07-24T21:43:14.093Z,22.30
2017-07-24T21:45:41.646Z,22.50
2017-07-24T21:48:09.318Z,22.40
2017-07-24T21:50:36.874Z,22.40
2017-07-24T21:53:04.422Z,22.40
2017-07-24T21:55:31.995Z,22.40
2017-07-24T21:57:59.554Z,22.30
2017-07-24T22:00:27.131Z,22.30
2017-07-24T22:02:54.770Z,22.20
2017-07-24T22:05:23.149Z,22.40
2017-07-24T22:07:50.697Z,22.40
2017-07-24T22:10:18.274Z,22.30
2017-07-24T22:12:45.903Z,22.30
2017-07-24T22:15:13.489Z,22.10
2017-07-24T22:17:41.050Z,22.10
2017-07-24T22:20:08.594Z,21.90
2017-07-24T22:22:36.166Z,21.90
2017-07-24T22:25:03.733Z,21.90
2017-07-24T22:27:31.387Z,21.90
2017-07-24T22:29:59.046Z,21.90
2017-07-24T22:32:26.609Z,21.90
2017-07-24T22:34:54.155Z,22.00
2017-07-24T22:37:21.739Z,21.80
2017-07-24T22:39:49.382Z,21.70
2017-07-24T22:42:16.949Z,21.70
2017-07-24T22:44:44.610Z,21.60
2017-07-24T22:47:12.266Z,21.50
2017-07-24T22:49:39.934Z,21.20
2017-07-24T22:52:07.481Z,21.20
2017-07-24T22:54:35.029Z,21.20
2017-07-24T22:57:02.578Z,21.50
2017-07-24T22:59:30.166Z,21.70
2017-07-24T23:01:57.799Z,21.80
2017-07-24T23:04:25.341Z,21.90
2017-07-24T23:06:52.941Z,21.80
2017-07-24T23:09:20.512Z,21.70
2017-07-24T23:11:48.159Z,21.70
2017-07-24T23:14:16.125Z,21.90
2017-07-24T23:16:43.666Z,22.00
2017-07-24T23:19:11.222Z,22.00
2017-07-24T23:21:38.772Z,21.90
2017-07-24T23:24:06.313Z,21.90
2017-07-24T23:26:33.899Z,21.90
2017-07-24T23:29:01.486Z,21.90
2017-07-24T23:31:29.143Z,22.00
2017-07-24T23:33:56.814Z,21.90
2017-07-24T23:36:24.360Z,21.90
2017-07-24T23:38:52.014Z,21.90
2017-07-24T23:41:19.586Z,21.70
2017-07-24T23:43:47.142Z,21.80
2017-07-24T23:46:14.691Z,21.90
2017-07-24T23:48:42.267Z,21.80
2017-07-24T23:51:09.922Z,21.90
2017-07-24T23:53:37.473Z,21.90
2017-07-24T23:56:05.044Z,21.90
2017-07-24T23:58:32.590Z,21.90
